sensor_id;sensor_type;location;lat;lon;timestamp;temperature;humidity
44833;DHT22;30569;51.252;9.830;2023-04-03T00:00:30;2.40;99.90
44833;DHT22;30569;51.252;9.830;2023-04-03T00:02:56;2.10;99.90
44833;DHT22;30569;51.252;9.830;2023-04-03T00:05:21;2.30;99.90
44833;DHT22;30569;51.252;9.830;2023-04-03T00:07:47;2.40;99.90
44833;DHT22;30569;51.252;9.830;2023-04-03T00:10:12;2.30;99.90
44833;DHT22;30569;51.252;9.830;2023-04-03T00:12:39;2.30;99.90
44833;DHT22;30569;51.252;9.830;2023-04-03T00:15:05;2.70;99.90
44833;DHT22;30569;51.252;9.830;2023-04-03T00:17:31;2.70;99.90
44833;DHT22;30569;51.252;9.830;2023-04-03T00:19:56;2.70;99.90
44833;DHT22;30569;51.252;9.830;2023-04-03T00:22:22;2.40;99.90
44833;DHT22;30569;51.252;9.830;2023-04-03T00:24:47;2.50;99.90
44833;DHT22;30569;51.252;9.830;2023-04-03T00:27:13;2.30;99.90
44833;DHT22;30569;51.252;9.830;2023-04-03T00:29:38;2.70;99.90
44833;DHT22;30569;51.252;9.830;2023-04-03T00:32:04;2.40;99.90
44833;DHT22;30569;51.252;9.830;2023-04-03T00:36:57;1.70;99.90
44833;DHT22;30569;51.252;9.830;2023-04-03T00:39:22;1.90;99.90
44833;DHT22;30569;51.252;9.830;2023-04-03T00:41:48;1.90;99.90
44833;DHT22;30569;51.252;9.830;2023-04-03T00:45:20;1.90;99.90
44833;DHT22;30569;51.252;9.830;2023-04-03T00:47:14;2.20;99.90
44833;DHT22;30569;51.252;9.830;2023-04-03T00:49:42;1.90;99.90
44833;DHT22;30569;51.252;9.830;2023-04-03T00:52:13;2.00;99.90
44833;DHT22;30569;51.252;9.830;2023-04-03T00:54:41;1.90;99.90
44833;DHT22;30569;51.252;9.830;2023-04-03T00:57:08;1.80;99.90
44833;DHT22;30569;51.252;9.830;2023-04-03T00:59:38;1.70;99.90
44833;DHT22;30569;51.252;9.830;2023-04-03T01:02:05;1.30;99.90
44833;DHT22;30569;51.252;9.830;2023-04-03T01:04:40;0.80;99.90
44833;DHT22;30569;51.252;9.830;2023-04-03T01:07:27;1.10;99.90
44833;DHT22;30569;51.252;9.830;2023-04-03T01:09:57;1.30;99.90
44833;DHT22;30569;51.252;9.830;2023-04-03T01:12:26;1.30;99.90
44833;DHT22;30569;51.252;9.830;2023-04-03T01:14:57;1.30;99.90
44833;DHT22;30569;51.252;9.830;2023-04-03T01:25:35;0.80;99.90
44833;DHT22;30569;51.252;9.830;2023-04-03T01:28:02;0.90;99.90
44833;DHT22;30569;51.252;9.830;2023-04-03T01:30:33;0.90;99.90
44833;DHT22;30569;51.252;9.830;2023-04-03T01:32:59;1.10;99.90
44833;DHT22;30569;51.252;9.830;2023-04-03T01:35:25;0.80;99.90
44833;DHT22;30569;51.252;9.830;2023-04-03T01:40:17;1.00;99.90
44833;DHT22;30569;51.252;9.830;2023-04-03T01:42:42;0.90;99.90
44833;DHT22;30569;51.252;9.830;2023-04-03T01:45:08;1.00;99.90
44833;DHT22;30569;51.252;9.830;2023-04-03T01:47:34;0.80;99.90
44833;DHT22;30569;51.252;9.830;2023-04-03T01:49:59;0.60;99.90
44833;DHT22;30569;51.252;9.830;2023-04-03T01:52:25;0.90;99.90
44833;DHT22;30569;51.252;9.830;2023-04-03T01:54:50;0.50;99.90
44833;DHT22;30569;51.252;9.830;2023-04-03T01:57:16;0.80;99.90
44833;DHT22;30569;51.252;9.830;2023-04-03T02:02:08;1.10;99.90
44833;DHT22;30569;51.252;9.830;2023-04-03T02:04:33;1.20;99.90
44833;DHT22;30569;51.252;9.830;2023-04-03T02:06:59;0.80;99.90
44833;DHT22;30569;51.252;9.830;2023-04-03T02:09:25;0.70;99.90
44833;DHT22;30569;51.252;9.830;2023-04-03T02:16:44;0.30;99.90
44833;DHT22;30569;51.252;9.830;2023-04-03T02:19:09;0.70;99.90
44833;DHT22;30569;51.252;9.830;2023-04-03T02:21:35;0.50;99.90
44833;DHT22;30569;51.252;9.830;2023-04-03T02:28:52;-0.10;99.90
44833;DHT22;30569;51.252;9.830;2023-04-03T02:31:18;0.30;99.90
44833;DHT22;30569;51.252;9.830;2023-04-03T02:33:43;0.40;99.90
44833;DHT22;30569;51.252;9.830;2023-04-03T02:36:09;0.80;99.90
44833;DHT22;30569;51.252;9.830;2023-04-03T02:38:35;0.60;99.90
44833;DHT22;30569;51.252;9.830;2023-04-03T02:41:02;0.80;99.90
44833;DHT22;30569;51.252;9.830;2023-04-03T02:43:28;1.00;99.90
44833;DHT22;30569;51.252;9.830;2023-04-03T02:45:54;1.00;99.90
44833;DHT22;30569;51.252;9.830;2023-04-03T02:48:19;1.10;99.90
44833;DHT22;30569;51.252;9.830;2023-04-03T02:53:11;0.80;99.90
44833;DHT22;30569;51.252;9.830;2023-04-03T03:00:29;0.90;99.90
44833;DHT22;30569;51.252;9.830;2023-04-03T03:02:55;0.80;99.90
44833;DHT22;30569;51.252;9.830;2023-04-03T03:05:20;0.50;99.90
44833;DHT22;30569;51.252;9.830;2023-04-03T03:07:47;0.40;99.90
44833;DHT22;30569;51.252;9.830;2023-04-03T03:10:12;0.40;99.90
44833;DHT22;30569;51.252;9.830;2023-04-03T03:12:38;0.10;99.90
44833;DHT22;30569;51.252;9.830;2023-04-03T03:15:04;0.70;99.90
44833;DHT22;30569;51.252;9.830;2023-04-03T03:17:29;1.20;99.90
44833;DHT22;30569;51.252;9.830;2023-04-03T03:19:55;0.80;99.90
44833;DHT22;30569;51.252;9.830;2023-04-03T03:24:46;0.70;99.90
44833;DHT22;30569;51.252;9.830;2023-04-03T03:27:12;0.80;99.90
44833;DHT22;30569;51.252;9.830;2023-04-03T03:29:37;0.90;99.90
44833;DHT22;30569;51.252;9.830;2023-04-03T03:32:03;0.90;99.90
44833;DHT22;30569;51.252;9.830;2023-04-03T03:34:29;1.00;99.90
44833;DHT22;30569;51.252;9.830;2023-04-03T03:36:54;1.20;99.90
44833;DHT22;30569;51.252;9.830;2023-04-03T03:39:20;0.90;99.90
44833;DHT22;30569;51.252;9.830;2023-04-03T03:41:46;0.80;99.90
44833;DHT22;30569;51.252;9.830;2023-04-03T03:44:12;0.90;99.90
44833;DHT22;30569;51.252;9.830;2023-04-03T03:46:38;0.90;99.90
44833;DHT22;30569;51.252;9.830;2023-04-03T03:49:03;0.70;99.90
44833;DHT22;30569;51.252;9.830;2023-04-03T03:51:29;0.60;99.90
44833;DHT22;30569;51.252;9.830;2023-04-03T03:53:55;0.60;99.90
44833;DHT22;30569;51.252;9.830;2023-04-03T03:56:21;0.30;99.90
44833;DHT22;30569;51.252;9.830;2023-04-03T03:58:47;0.60;99.90
44833;DHT22;30569;51.252;9.830;2023-04-03T04:01:13;0.70;99.90
44833;DHT22;30569;51.252;9.830;2023-04-03T04:03:38;1.00;99.90
44833;DHT22;30569;51.252;9.830;2023-04-03T04:06:04;0.40;99.90
44833;DHT22;30569;51.252;9.830;2023-04-03T04:10:55;0.40;99.90
44833;DHT22;30569;51.252;9.830;2023-04-03T04:13:21;0.70;99.90
44833;DHT22;30569;51.252;9.830;2023-04-03T04:15:47;0.60;99.90
44833;DHT22;30569;51.252;9.830;2023-04-03T04:18:12;0.40;99.90
44833;DHT22;30569;51.252;9.830;2023-04-03T04:20:38;0.30;99.90
44833;DHT22;30569;51.252;9.830;2023-04-03T04:23:03;0.00;99.90
44833;DHT22;30569;51.252;9.830;2023-04-03T04:25:29;0.20;99.90
44833;DHT22;30569;51.252;9.830;2023-04-03T04:27:54;0.30;99.90
44833;DHT22;30569;51.252;9.830;2023-04-03T04:30:20;0.40;99.90
44833;DHT22;30569;51.252;9.830;2023-04-03T04:32:45;0.10;99.90
44833;DHT22;30569;51.252;9.830;2023-04-03T04:35:11;0.50;99.90
44833;DHT22;30569;51.252;9.830;2023-04-03T04:37:36;0.20;99.90
44833;DHT22;30569;51.252;9.830;2023-04-03T04:40:02;0.60;99.90
44833;DHT22;30569;51.252;9.830;2023-04-03T04:42:28;0.80;99.90
44833;DHT22;30569;51.252;9.830;2023-04-03T04:47:20;-0.10;99.90
44833;DHT22;30569;51.252;9.830;2023-04-03T04:49:45;0.40;99.90
44833;DHT22;30569;51.252;9.830;2023-04-03T04:52:12;0.50;99.90
44833;DHT22;30569;51.252;9.830;2023-04-03T04:54:38;0.20;99.90
44833;DHT22;30569;51.252;9.830;2023-04-03T04:57:03;0.60;99.90
44833;DHT22;30569;51.252;9.830;2023-04-03T04:59:29;0.50;99.90
44833;DHT22;30569;51.252;9.830;2023-04-03T05:01:55;0.40;99.90
44833;DHT22;30569;51.252;9.830;2023-04-03T05:06:46;0.80;99.90
44833;DHT22;30569;51.252;9.830;2023-04-03T05:09:12;0.60;99.90
44833;DHT22;30569;51.252;9.830;2023-04-03T05:11:38;0.40;99.90
44833;DHT22;30569;51.252;9.830;2023-04-03T05:14:03;0.10;99.90
44833;DHT22;30569;51.252;9.830;2023-04-03T05:16:32;0.50;99.90
44833;DHT22;30569;51.252;9.830;2023-04-03T05:18:57;0.40;99.90
44833;DHT22;30569;51.252;9.830;2023-04-03T05:21:23;0.50;99.90
44833;DHT22;30569;51.252;9.830;2023-04-03T05:23:51;0.90;99.90
44833;DHT22;30569;51.252;9.830;2023-04-03T05:26:17;0.10;99.90
44833;DHT22;30569;51.252;9.830;2023-04-03T05:28:42;0.40;99.90
44833;DHT22;30569;51.252;9.830;2023-04-03T05:31:08;-0.50;99.90
44833;DHT22;30569;51.252;9.830;2023-04-03T05:36:05;-0.20;99.90
44833;DHT22;30569;51.252;9.830;2023-04-03T05:38:32;-0.10;99.90
44833;DHT22;30569;51.252;9.830;2023-04-03T05:40:57;-0.10;99.90
44833;DHT22;30569;51.252;9.830;2023-04-03T05:43:23;0.10;99.90
44833;DHT22;30569;51.252;9.830;2023-04-03T05:45:48;0.00;99.90
44833;DHT22;30569;51.252;9.830;2023-04-03T05:50:40;0.20;99.90
44833;DHT22;30569;51.252;9.830;2023-04-03T05:53:13;0.10;99.90
44833;DHT22;30569;51.252;9.830;2023-04-03T05:55:41;0.30;99.90
44833;DHT22;30569;51.252;9.830;2023-04-03T05:58:06;0.80;99.90
44833;DHT22;30569;51.252;9.830;2023-04-03T06:00:32;0.90;99.90
44833;DHT22;30569;51.252;9.830;2023-04-03T06:02:57;1.10;99.90
44833;DHT22;30569;51.252;9.830;2023-04-03T06:05:23;1.10;99.90
44833;DHT22;30569;51.252;9.830;2023-04-03T06:15:07;0.50;99.90
44833;DHT22;30569;51.252;9.830;2023-04-03T06:17:35;0.40;99.90
44833;DHT22;30569;51.252;9.830;2023-04-03T06:22:29;0.50;99.90
44833;DHT22;30569;51.252;9.830;2023-04-03T06:24:56;0.40;99.90
44833;DHT22;30569;51.252;9.830;2023-04-03T06:27:22;0.40;99.90
44833;DHT22;30569;51.252;9.830;2023-04-03T06:29:47;0.40;99.90
44833;DHT22;30569;51.252;9.830;2023-04-03T06:32:14;0.20;99.90
44833;DHT22;30569;51.252;9.830;2023-04-03T06:34:40;0.90;99.90
44833;DHT22;30569;51.252;9.830;2023-04-03T06:41:58;0.50;99.90
44833;DHT22;30569;51.252;9.830;2023-04-03T06:46:50;0.80;99.90
44833;DHT22;30569;51.252;9.830;2023-04-03T06:49:17;1.00;99.90
44833;DHT22;30569;51.252;9.830;2023-04-03T06:51:43;1.20;99.90
44833;DHT22;30569;51.252;9.830;2023-04-03T06:54:09;1.30;99.90
44833;DHT22;30569;51.252;9.830;2023-04-03T06:56:35;1.30;99.90
44833;DHT22;30569;51.252;9.830;2023-04-03T06:59:00;2.00;99.90
44833;DHT22;30569;51.252;9.830;2023-04-03T07:01:28;1.70;99.90
44833;DHT22;30569;51.252;9.830;2023-04-03T07:08:47;1.60;99.90
44833;DHT22;30569;51.252;9.830;2023-04-03T07:11:16;1.80;99.90
44833;DHT22;30569;51.252;9.830;2023-04-03T07:16:08;2.10;99.90
44833;DHT22;30569;51.252;9.830;2023-04-03T07:18:34;2.10;99.90
44833;DHT22;30569;51.252;9.830;2023-04-03T07:21:00;1.80;99.90
44833;DHT22;30569;51.252;9.830;2023-04-03T07:23:25;1.80;99.90
44833;DHT22;30569;51.252;9.830;2023-04-03T07:25:52;1.80;99.90
44833;DHT22;30569;51.252;9.830;2023-04-03T07:28:19;2.00;99.90
44833;DHT22;30569;51.252;9.830;2023-04-03T07:30:47;2.20;99.90
44833;DHT22;30569;51.252;9.830;2023-04-03T07:33:16;2.30;99.90
44833;DHT22;30569;51.252;9.830;2023-04-03T07:35:43;2.60;99.90
44833;DHT22;30569;51.252;9.830;2023-04-03T07:38:09;2.80;99.90
44833;DHT22;30569;51.252;9.830;2023-04-03T07:40:35;2.80;99.90
44833;DHT22;30569;51.252;9.830;2023-04-03T07:43:01;3.00;99.90
44833;DHT22;30569;51.252;9.830;2023-04-03T07:45:28;3.30;99.90
44833;DHT22;30569;51.252;9.830;2023-04-03T07:47:53;3.70;99.90
44833;DHT22;30569;51.252;9.830;2023-04-03T07:50:19;4.00;99.90
44833;DHT22;30569;51.252;9.830;2023-04-03T07:52:44;4.00;99.70
44833;DHT22;30569;51.252;9.830;2023-04-03T07:55:11;4.60;96.80
44833;DHT22;30569;51.252;9.830;2023-04-03T07:57:36;4.60;96.20
44833;DHT22;30569;51.252;9.830;2023-04-03T08:00:04;4.50;96.10
44833;DHT22;30569;51.252;9.830;2023-04-03T08:02:31;5.00;95.10
44833;DHT22;30569;51.252;9.830;2023-04-03T08:04:59;5.10;95.40
44833;DHT22;30569;51.252;9.830;2023-04-03T08:07:25;5.20;90.90
44833;DHT22;30569;51.252;9.830;2023-04-03T08:09:51;5.10;90.90
44833;DHT22;30569;51.252;9.830;2023-04-03T08:12:17;5.90;90.20
44833;DHT22;30569;51.252;9.830;2023-04-03T08:14:43;7.20;88.50
44833;DHT22;30569;51.252;9.830;2023-04-03T08:17:09;7.10;85.10
44833;DHT22;30569;51.252;9.830;2023-04-03T08:19:37;7.70;77.20
44833;DHT22;30569;51.252;9.830;2023-04-03T08:22:03;7.30;79.70
44833;DHT22;30569;51.252;9.830;2023-04-03T08:24:31;7.50;77.80
44833;DHT22;30569;51.252;9.830;2023-04-03T08:26:57;8.00;77.10
44833;DHT22;30569;51.252;9.830;2023-04-03T08:29:23;9.20;74.70
44833;DHT22;30569;51.252;9.830;2023-04-03T08:31:49;10.10;72.50
44833;DHT22;30569;51.252;9.830;2023-04-03T08:34:15;10.70;67.50
44833;DHT22;30569;51.252;9.830;2023-04-03T08:36:41;12.30;64.50
44833;DHT22;30569;51.252;9.830;2023-04-03T08:39:07;14.80;56.30
44833;DHT22;30569;51.252;9.830;2023-04-03T08:41:37;15.40;53.20
44833;DHT22;30569;51.252;9.830;2023-04-03T08:50:05;17.50;47.40
44833;DHT22;30569;51.252;9.830;2023-04-03T08:52:41;17.50;46.70
44833;DHT22;30569;51.252;9.830;2023-04-03T08:55:39;18.70;45.70
44833;DHT22;30569;51.252;9.830;2023-04-03T08:58:12;18.80;44.00
44833;DHT22;30569;51.252;9.830;2023-04-03T09:01:12;18.90;44.30
44833;DHT22;30569;51.252;9.830;2023-04-03T09:03:40;17.50;44.40
44833;DHT22;30569;51.252;9.830;2023-04-03T09:06:20;15.90;48.50
44833;DHT22;30569;51.252;9.830;2023-04-03T09:14:26;18.30;43.10
44833;DHT22;30569;51.252;9.830;2023-04-03T09:19:58;20.70;40.40
44833;DHT22;30569;51.252;9.830;2023-04-03T09:22:30;18.40;43.10
44833;DHT22;30569;51.252;9.830;2023-04-03T09:25:05;16.20;46.10
44833;DHT22;30569;51.252;9.830;2023-04-03T09:27:34;12.20;51.20
44833;DHT22;30569;51.252;9.830;2023-04-03T09:29:59;9.40;54.30
44833;DHT22;30569;51.252;9.830;2023-04-03T09:32:29;10.30;53.90
44833;DHT22;30569;51.252;9.830;2023-04-03T09:34:59;10.70;52.90
44833;DHT22;30569;51.252;9.830;2023-04-03T09:37:38;13.30;50.50
44833;DHT22;30569;51.252;9.830;2023-04-03T09:40:05;13.50;50.50
44833;DHT22;30569;51.252;9.830;2023-04-03T09:42:31;16.90;47.30
44833;DHT22;30569;51.252;9.830;2023-04-03T09:45:01;16.90;44.30
44833;DHT22;30569;51.252;9.830;2023-04-03T09:47:32;17.60;42.80
44833;DHT22;30569;51.252;9.830;2023-04-03T09:52:40;18.90;42.60
44833;DHT22;30569;51.252;9.830;2023-04-03T09:55:25;19.50;40.20
44833;DHT22;30569;51.252;9.830;2023-04-03T09:58:02;16.80;44.50
44833;DHT22;30569;51.252;9.830;2023-04-03T10:00:35;16.60;44.90
44833;DHT22;30569;51.252;9.830;2023-04-03T10:03:02;12.70;50.50
44833;DHT22;30569;51.252;9.830;2023-04-03T10:05:39;8.30;57.60
44833;DHT22;30569;51.252;9.830;2023-04-03T10:11:14;6.60;60.80
44833;DHT22;30569;51.252;9.830;2023-04-03T10:14:02;5.80;62.30
44833;DHT22;30569;51.252;9.830;2023-04-03T10:16:38;6.30;65.60
44833;DHT22;30569;51.252;9.830;2023-04-03T10:22:18;6.40;62.60
44833;DHT22;30569;51.252;9.830;2023-04-03T10:25:02;6.90;67.60
44833;DHT22;30569;51.252;9.830;2023-04-03T10:32:45;7.80;65.60
44833;DHT22;30569;51.252;9.830;2023-04-03T10:38:34;8.20;66.60
44833;DHT22;30569;51.252;9.830;2023-04-03T10:49:51;7.80;72.60
44833;DHT22;30569;51.252;9.830;2023-04-03T10:52:26;8.20;72.50
44833;DHT22;30569;51.252;9.830;2023-04-03T11:00:30;7.70;62.40
44833;DHT22;30569;51.252;9.830;2023-04-03T11:02:58;8.20;70.00
44833;DHT22;30569;51.252;9.830;2023-04-03T11:05:36;8.30;63.60
44833;DHT22;30569;51.252;9.830;2023-04-03T11:08:22;7.10;65.90
44833;DHT22;30569;51.252;9.830;2023-04-03T11:10:50;6.40;66.50
44833;DHT22;30569;51.252;9.830;2023-04-03T11:15:54;6.80;68.10
44833;DHT22;30569;51.252;9.830;2023-04-03T11:18:28;6.90;66.80
44833;DHT22;30569;51.252;9.830;2023-04-03T11:23:34;6.50;66.10
44833;DHT22;30569;51.252;9.830;2023-04-03T11:26:21;6.20;67.40
44833;DHT22;30569;51.252;9.830;2023-04-03T11:28:52;6.40;71.30
44833;DHT22;30569;51.252;9.830;2023-04-03T11:34:28;6.10;67.20
44833;DHT22;30569;51.252;9.830;2023-04-03T11:37:00;6.10;69.10
44833;DHT22;30569;51.252;9.830;2023-04-03T11:39:35;6.10;71.20
44833;DHT22;30569;51.252;9.830;2023-04-03T11:45:17;6.10;72.30
44833;DHT22;30569;51.252;9.830;2023-04-03T11:47:50;6.30;67.60
44833;DHT22;30569;51.252;9.830;2023-04-03T12:00:46;6.30;68.30
44833;DHT22;30569;51.252;9.830;2023-04-03T12:13:35;6.50;67.80
44833;DHT22;30569;51.252;9.830;2023-04-03T12:16:02;6.70;71.70
44833;DHT22;30569;51.252;9.830;2023-04-03T12:26:51;6.20;72.50
44833;DHT22;30569;51.252;9.830;2023-04-03T12:29:37;5.90;71.50
44833;DHT22;30569;51.252;9.830;2023-04-03T12:32:36;5.70;69.80
44833;DHT22;30569;51.252;9.830;2023-04-03T12:35:44;5.80;71.40
44833;DHT22;30569;51.252;9.830;2023-04-03T12:44:55;6.10;73.00
44833;DHT22;30569;51.252;9.830;2023-04-03T12:47:28;5.60;70.30
44833;DHT22;30569;51.252;9.830;2023-04-03T12:49:55;5.20;70.50
44833;DHT22;30569;51.252;9.830;2023-04-03T12:52:41;5.00;73.10
44833;DHT22;30569;51.252;9.830;2023-04-03T12:55:14;5.00;73.40
44833;DHT22;30569;51.252;9.830;2023-04-03T12:57:40;5.50;75.10
44833;DHT22;30569;51.252;9.830;2023-04-03T13:02:54;6.40;74.90
44833;DHT22;30569;51.252;9.830;2023-04-03T13:05:22;6.50;73.50
44833;DHT22;30569;51.252;9.830;2023-04-03T13:07:59;6.30;72.40
44833;DHT22;30569;51.252;9.830;2023-04-03T13:10:25;6.50;72.20
44833;DHT22;30569;51.252;9.830;2023-04-03T13:12:57;6.40;73.30
44833;DHT22;30569;51.252;9.830;2023-04-03T13:15:40;6.60;71.50
44833;DHT22;30569;51.252;9.830;2023-04-03T13:18:31;6.30;71.50
44833;DHT22;30569;51.252;9.830;2023-04-03T13:21:04;5.90;73.30
44833;DHT22;30569;51.252;9.830;2023-04-03T13:23:31;5.90;73.90
44833;DHT22;30569;51.252;9.830;2023-04-03T13:25:57;6.20;77.10
44833;DHT22;30569;51.252;9.830;2023-04-03T13:28:28;6.60;75.90
44833;DHT22;30569;51.252;9.830;2023-04-03T13:33:24;6.50;72.50
44833;DHT22;30569;51.252;9.830;2023-04-03T13:36:13;6.20;72.70
44833;DHT22;30569;51.252;9.830;2023-04-03T13:38:41;6.30;72.60
44833;DHT22;30569;51.252;9.830;2023-04-03T13:41:30;6.50;71.50
44833;DHT22;30569;51.252;9.830;2023-04-03T13:43:56;6.60;71.10
44833;DHT22;30569;51.252;9.830;2023-04-03T13:46:26;6.70;70.60
44833;DHT22;30569;51.252;9.830;2023-04-03T13:48:55;6.60;69.70
44833;DHT22;30569;51.252;9.830;2023-04-03T13:51:27;6.60;69.30
44833;DHT22;30569;51.252;9.830;2023-04-03T13:54:00;6.40;70.60
44833;DHT22;30569;51.252;9.830;2023-04-03T13:56:39;6.50;71.80
44833;DHT22;30569;51.252;9.830;2023-04-03T14:04:15;6.80;66.70
44833;DHT22;30569;51.252;9.830;2023-04-03T14:06:41;6.80;67.40
44833;DHT22;30569;51.252;9.830;2023-04-03T14:09:07;6.70;68.20
44833;DHT22;30569;51.252;9.830;2023-04-03T14:11:34;6.90;69.90
44833;DHT22;30569;51.252;9.830;2023-04-03T14:14:03;6.40;70.00
44833;DHT22;30569;51.252;9.830;2023-04-03T14:16:33;6.50;68.70
44833;DHT22;30569;51.252;9.830;2023-04-03T14:19:02;6.50;67.50
44833;DHT22;30569;51.252;9.830;2023-04-03T14:21:28;6.70;69.10
44833;DHT22;30569;51.252;9.830;2023-04-03T14:23:54;6.50;69.70
44833;DHT22;30569;51.252;9.830;2023-04-03T14:26:22;6.60;70.10
44833;DHT22;30569;51.252;9.830;2023-04-03T14:28:51;6.70;71.90
44833;DHT22;30569;51.252;9.830;2023-04-03T14:31:17;6.50;68.80
44833;DHT22;30569;51.252;9.830;2023-04-03T14:33:43;6.40;70.90
44833;DHT22;30569;51.252;9.830;2023-04-03T14:36:14;6.00;70.70
44833;DHT22;30569;51.252;9.830;2023-04-03T14:41:07;5.80;72.30
44833;DHT22;30569;51.252;9.830;2023-04-03T14:43:32;5.80;68.50
44833;DHT22;30569;51.252;9.830;2023-04-03T14:45:58;6.30;69.60
44833;DHT22;30569;51.252;9.830;2023-04-03T14:48:27;6.60;72.00
44833;DHT22;30569;51.252;9.830;2023-04-03T14:50:53;6.70;73.70
44833;DHT22;30569;51.252;9.830;2023-04-03T14:53:20;6.50;73.20
44833;DHT22;30569;51.252;9.830;2023-04-03T14:55:50;6.40;73.70
44833;DHT22;30569;51.252;9.830;2023-04-03T14:58:18;6.00;72.80
44833;DHT22;30569;51.252;9.830;2023-04-03T15:00:45;5.90;75.10
44833;DHT22;30569;51.252;9.830;2023-04-03T15:03:21;5.90;74.60
44833;DHT22;30569;51.252;9.830;2023-04-03T15:05:47;6.00;75.50
44833;DHT22;30569;51.252;9.830;2023-04-03T15:08:22;6.10;75.60
44833;DHT22;30569;51.252;9.830;2023-04-03T15:15:42;6.10;75.40
44833;DHT22;30569;51.252;9.830;2023-04-03T15:18:15;6.30;73.60
44833;DHT22;30569;51.252;9.830;2023-04-03T15:20:43;6.30;71.80
44833;DHT22;30569;51.252;9.830;2023-04-03T15:23:10;6.30;73.60
44833;DHT22;30569;51.252;9.830;2023-04-03T15:25:36;6.30;69.50
44833;DHT22;30569;51.252;9.830;2023-04-03T15:28:02;6.10;72.00
44833;DHT22;30569;51.252;9.830;2023-04-03T15:30:28;5.80;71.30
44833;DHT22;30569;51.252;9.830;2023-04-03T15:32:53;6.10;70.70
44833;DHT22;30569;51.252;9.830;2023-04-03T15:35:19;5.80;70.50
44833;DHT22;30569;51.252;9.830;2023-04-03T15:37:44;5.50;69.70
44833;DHT22;30569;51.252;9.830;2023-04-03T15:40:10;5.20;71.00
44833;DHT22;30569;51.252;9.830;2023-04-03T15:42:36;5.40;71.30
44833;DHT22;30569;51.252;9.830;2023-04-03T15:45:02;5.20;70.90
44833;DHT22;30569;51.252;9.830;2023-04-03T15:47:28;5.50;72.90
44833;DHT22;30569;51.252;9.830;2023-04-03T15:49:54;6.80;73.20
44833;DHT22;30569;51.252;9.830;2023-04-03T15:52:20;5.70;73.10
44833;DHT22;30569;51.252;9.830;2023-04-03T15:54:46;5.70;69.90
44833;DHT22;30569;51.252;9.830;2023-04-03T15:57:12;6.10;72.40
44833;DHT22;30569;51.252;9.830;2023-04-03T15:59:37;6.20;69.30
44833;DHT22;30569;51.252;9.830;2023-04-03T16:02:05;6.20;72.80
44833;DHT22;30569;51.252;9.830;2023-04-03T16:04:33;5.80;70.50
44833;DHT22;30569;51.252;9.830;2023-04-03T16:07:02;5.70;69.90
44833;DHT22;30569;51.252;9.830;2023-04-03T16:11:53;5.40;70.40
44833;DHT22;30569;51.252;9.830;2023-04-03T16:14:19;5.20;72.90
44833;DHT22;30569;51.252;9.830;2023-04-03T16:19:11;5.10;73.70
44833;DHT22;30569;51.252;9.830;2023-04-03T16:21:36;5.30;74.50
44833;DHT22;30569;51.252;9.830;2023-04-03T16:24:03;5.20;73.60
44833;DHT22;30569;51.252;9.830;2023-04-03T16:26:28;5.30;74.30
44833;DHT22;30569;51.252;9.830;2023-04-03T16:28:54;5.50;72.50
44833;DHT22;30569;51.252;9.830;2023-04-03T16:31:20;5.30;72.90
44833;DHT22;30569;51.252;9.830;2023-04-03T16:33:47;5.40;74.20
44833;DHT22;30569;51.252;9.830;2023-04-03T16:36:12;5.30;73.20
44833;DHT22;30569;51.252;9.830;2023-04-03T16:38:38;5.10;70.60
44833;DHT22;30569;51.252;9.830;2023-04-03T16:41:03;5.10;71.80
44833;DHT22;30569;51.252;9.830;2023-04-03T16:43:33;5.00;73.20
44833;DHT22;30569;51.252;9.830;2023-04-03T16:46:00;4.50;72.60
44833;DHT22;30569;51.252;9.830;2023-04-03T16:48:28;4.70;73.50
44833;DHT22;30569;51.252;9.830;2023-04-03T16:53:21;5.10;71.70
44833;DHT22;30569;51.252;9.830;2023-04-03T16:55:47;5.50;71.20
44833;DHT22;30569;51.252;9.830;2023-04-03T17:29:54;4.30;74.10
44833;DHT22;30569;51.252;9.830;2023-04-03T17:32:20;4.30;74.40
44833;DHT22;30569;51.252;9.830;2023-04-03T17:34:46;4.10;74.40
44833;DHT22;30569;51.252;9.830;2023-04-03T17:37:12;4.10;74.20
44833;DHT22;30569;51.252;9.830;2023-04-03T17:39:37;4.00;74.50
44833;DHT22;30569;51.252;9.830;2023-04-03T17:42:03;4.50;75.30
44833;DHT22;30569;51.252;9.830;2023-04-03T17:46:55;4.30;74.50
44833;DHT22;30569;51.252;9.830;2023-04-03T17:49:20;4.50;74.40
44833;DHT22;30569;51.252;9.830;2023-04-03T17:51:47;4.30;75.50
44833;DHT22;30569;51.252;9.830;2023-04-03T17:54:12;4.60;74.50
44833;DHT22;30569;51.252;9.830;2023-04-03T17:56:38;4.20;74.70
44833;DHT22;30569;51.252;9.830;2023-04-03T17:59:04;5.00;75.40
44833;DHT22;30569;51.252;9.830;2023-04-03T18:01:32;4.70;75.10
44833;DHT22;30569;51.252;9.830;2023-04-03T18:04:00;4.70;75.30
44833;DHT22;30569;51.252;9.830;2023-04-03T18:06:33;4.30;75.20
44833;DHT22;30569;51.252;9.830;2023-04-03T18:09:07;4.30;75.70
44833;DHT22;30569;51.252;9.830;2023-04-03T18:11:34;3.90;76.00
44833;DHT22;30569;51.252;9.830;2023-04-03T18:14:01;3.70;75.60
44833;DHT22;30569;51.252;9.830;2023-04-03T18:18:54;3.50;76.70
44833;DHT22;30569;51.252;9.830;2023-04-03T18:21:19;4.00;76.00
44833;DHT22;30569;51.252;9.830;2023-04-03T18:23:49;3.70;76.20
44833;DHT22;30569;51.252;9.830;2023-04-03T18:26:15;3.60;77.50
44833;DHT22;30569;51.252;9.830;2023-04-03T18:28:44;3.50;77.20
44833;DHT22;30569;51.252;9.830;2023-04-03T18:31:13;3.90;78.20
44833;DHT22;30569;51.252;9.830;2023-04-03T18:33:40;3.80;76.50
44833;DHT22;30569;51.252;9.830;2023-04-03T18:38:32;4.10;74.50
44833;DHT22;30569;51.252;9.830;2023-04-03T18:40:58;3.70;75.60
44833;DHT22;30569;51.252;9.830;2023-04-03T18:43:25;4.00;76.60
44833;DHT22;30569;51.252;9.830;2023-04-03T18:45:51;3.80;77.10
44833;DHT22;30569;51.252;9.830;2023-04-03T18:50:43;3.80;77.20
44833;DHT22;30569;51.252;9.830;2023-04-03T18:53:09;3.70;76.10
44833;DHT22;30569;51.252;9.830;2023-04-03T18:55:35;3.80;77.60
44833;DHT22;30569;51.252;9.830;2023-04-03T18:58:01;3.80;78.50
44833;DHT22;30569;51.252;9.830;2023-04-03T19:05:19;3.80;76.50
44833;DHT22;30569;51.252;9.830;2023-04-03T19:07:46;3.70;77.30
44833;DHT22;30569;51.252;9.830;2023-04-03T19:10:13;3.60;77.30
44833;DHT22;30569;51.252;9.830;2023-04-03T19:12:50;3.80;77.10
44833;DHT22;30569;51.252;9.830;2023-04-03T19:15:20;3.80;76.80
44833;DHT22;30569;51.252;9.830;2023-04-03T19:22:39;3.60;77.40
44833;DHT22;30569;51.252;9.830;2023-04-03T19:27:32;4.10;76.30
44833;DHT22;30569;51.252;9.830;2023-04-03T19:29:59;4.00;75.80
44833;DHT22;30569;51.252;9.830;2023-04-03T19:32:25;4.20;77.50
44833;DHT22;30569;51.252;9.830;2023-04-03T19:34:51;4.20;77.60
44833;DHT22;30569;51.252;9.830;2023-04-03T19:37:16;3.90;76.10
44833;DHT22;30569;51.252;9.830;2023-04-03T19:39:42;3.70;77.10
44833;DHT22;30569;51.252;9.830;2023-04-03T19:42:08;3.70;76.90
44833;DHT22;30569;51.252;9.830;2023-04-03T19:47:02;3.50;77.80
44833;DHT22;30569;51.252;9.830;2023-04-03T19:54:21;3.10;78.60
44833;DHT22;30569;51.252;9.830;2023-04-03T19:56:47;3.00;77.70
44833;DHT22;30569;51.252;9.830;2023-04-03T20:06:31;3.30;77.60
44833;DHT22;30569;51.252;9.830;2023-04-03T20:11:23;3.80;77.60